Time;durP1;ratioP1;P1;durP2;ratioP2;P2;SDS_P1;SDS_P2;PMS_P1;PMS_P2;Temp;Humidity;BMP_temperature;BMP_pressure;BME280_temperature;BME280_humidity;BME280_pressure;Samples;Min_cycle;Max_cycle;Signal;HPM_P1;HPM_P2
2023/10/22 00:02:11;;;;;;;;;0.00;0.00;;;;;12.21;100.00;99412.84;5049222;28;9599;-68
2023/10/22 00:04:41;;;;;;;;;1.00;1.00;;;;;12.24;100.00;99415.88;5048498;28;9436;-68
2023/10/22 00:07:07;;;;;;;;;0.00;0.00;;;;;12.28;100.00;99414.34;5049038;28;9640;-68
2023/10/22 00:09:34;;;;;;;;;0.00;0.00;;;;;12.29;100.00;99415.16;5049439;28;9798;-67
2023/10/22 00:12:01;;;;;;;;;1.25;1.00;;;;;12.28;100.00;99411.63;5049266;28;9373;-67
2023/10/22 00:14:27;;;;;;;;;0.00;0.00;;;;;12.31;100.00;99421.94;5049339;28;9516;-67
2023/10/22 00:16:54;;;;;;;;;0.00;0.00;;;;;12.33;100.00;99414.44;5048993;28;9378;-66
2023/10/22 00:19:20;;;;;;;;;1.00;1.00;;;;;12.29;100.00;99407.88;5049723;28;9557;-67
2023/10/22 00:21:46;;;;;;;;;1.00;1.00;;;;;12.28;100.00;99418.91;5049251;28;9486;-66
2023/10/22 00:24:13;;;;;;;;;1.00;1.00;;;;;12.27;100.00;99417.25;5049056;28;9395;-68
2023/10/22 00:26:39;;;;;;;;;2.00;1.00;;;;;12.32;100.00;99418.19;5048505;28;9636;-68
2023/10/22 00:29:06;;;;;;;;;1.00;1.00;;;;;12.32;100.00;99418.19;5047532;28;9506;-67
2023/10/22 00:31:33;;;;;;;;;1.00;1.00;;;;;12.30;100.00;99423.00;5048841;28;9514;-67
2023/10/22 00:33:59;;;;;;;;;1.75;1.00;;;;;12.31;100.00;99419.22;5049193;28;9460;-67
2023/10/22 00:36:26;;;;;;;;;1.00;1.00;;;;;12.28;100.00;99421.63;5048383;28;10261;-68
2023/10/22 00:38:52;;;;;;;;;1.75;1.00;;;;;12.23;100.00;99421.50;5048478;28;9457;-68
2023/10/22 00:41:19;;;;;;;;;3.00;3.00;;;;;12.25;100.00;99420.19;5047083;28;9763;-67
2023/10/22 00:43:45;;;;;;;;;3.00;3.00;;;;;12.27;100.00;99420.78;5048368;28;9439;-67
2023/10/22 00:46:18;;;;;;;;;3.25;3.00;;;;;12.30;100.00;99425.69;5046495;28;9467;-67
2023/10/22 00:48:45;;;;;;;;;2.00;2.00;;;;;12.26;100.00;99421.84;5047029;28;9719;-68
2023/10/22 00:51:13;;;;;;;;;2.25;2.25;;;;;12.26;100.00;99421.03;5048442;28;9632;-68
2023/10/22 00:53:44;;;;;;;;;3.25;3.00;;;;;12.28;100.00;99427.81;5063329;28;9552;-67
2023/10/22 00:56:12;;;;;;;;;2.00;2.00;;;;;12.29;100.00;99444.81;5046536;28;9764;-67
2023/10/22 00:58:40;;;;;;;;;6.25;3.75;;;;;12.26;100.00;99443.41;5046774;28;9669;-68
2023/10/22 01:01:08;;;;;;;;;4.00;3.00;;;;;12.27;100.00;99436.13;5046987;28;9555;-67
2023/10/22 01:03:35;;;;;;;;;3.50;3.50;;;;;12.27;100.00;99438.84;5048298;28;9585;-67
2023/10/22 01:06:06;;;;;;;;;3.00;3.00;;;;;12.30;100.00;99435.66;5046269;28;9539;-68
2023/10/22 01:08:34;;;;;;;;;2.00;2.00;;;;;12.32;100.00;99434.38;5046920;28;9534;-68
2023/10/22 01:11:09;;;;;;;;;4.00;3.75;;;;;12.37;100.00;99434.47;5063388;28;9594;-68
2023/10/22 01:13:36;;;;;;;;;3.25;3.25;;;;;12.38;100.00;99440.69;5048080;28;9571;-68
2023/10/22 01:16:04;;;;;;;;;3.00;3.00;;;;;12.34;100.00;99442.22;5046358;28;9586;-68
2023/10/22 01:18:30;;;;;;;;;4.00;4.00;;;;;12.30;100.00;99438.38;5063124;28;9686;-68
2023/10/22 01:20:57;;;;;;;;;3.50;3.00;;;;;12.28;100.00;99460.19;5048552;28;9589;-68
2023/10/22 01:23:24;;;;;;;;;3.00;3.00;;;;;12.28;100.00;99445.91;5048076;28;9731;-68
2023/10/22 01:25:51;;;;;;;;;4.00;4.00;;;;;12.24;100.00;99442.03;5048059;28;9677;-67
2023/10/22 01:28:17;;;;;;;;;2.00;2.00;;;;;12.25;100.00;99465.25;5047674;28;9746;-68
2023/10/22 01:30:44;;;;;;;;;3.50;3.50;;;;;12.32;100.00;99455.16;5047897;28;9503;-68
2023/10/22 01:33:11;;;;;;;;;3.25;3.25;;;;;12.27;100.00;99444.22;5047699;28;9540;-67
2023/10/22 01:35:37;;;;;;;;;3.00;3.00;;;;;12.26;100.00;99458.78;5046244;28;9461;-68
2023/10/22 01:38:04;;;;;;;;;4.00;4.00;;;;;12.26;100.00;99462.31;5047406;28;9518;-68
2023/10/22 01:40:30;;;;;;;;;2.00;2.00;;;;;12.28;100.00;99471.00;5063090;28;9610;-67
2023/10/22 01:42:57;;;;;;;;;3.75;3.00;;;;;12.31;100.00;99472.38;5047670;28;9694;-68
2023/10/22 01:45:24;;;;;;;;;3.00;2.25;;;;;12.29;100.00;99478.03;5047451;28;9657;-68
2023/10/22 01:47:50;;;;;;;;;6.00;3.00;;;;;12.31;100.00;99481.28;5045782;28;9574;-68
2023/10/22 01:50:17;;;;;;;;;4.00;3.00;;;;;12.30;100.00;99468.03;5047684;28;9520;-67
2023/10/22 01:52:43;;;;;;;;;4.00;4.00;;;;;12.30;100.00;99485.06;5047534;28;9443;-68
2023/10/22 01:55:11;;;;;;;;;2.25;2.25;;;;;12.34;100.00;99474.59;5046257;28;9628;-68
2023/10/22 01:57:38;;;;;;;;;5.50;3.00;;;;;12.33;100.00;99481.88;5045742;28;9417;-68
2023/10/22 02:00:10;;;;;;;;;4.50;4.50;;;;;12.26;100.00;99483.88;5045981;28;9529;-68
2023/10/22 02:02:40;;;;;;;;;4.50;4.50;;;;;12.36;100.00;99486.81;5047627;28;9832;-67
2023/10/22 02:05:07;;;;;;;;;3.50;3.50;;;;;12.38;100.00;99492.78;5047485;28;9588;-68
2023/10/22 02:07:37;;;;;;;;;3.75;3.75;;;;;12.37;100.00;99495.72;5062398;28;9618;-67
2023/10/22 02:10:03;;;;;;;;;2.25;2.25;;;;;12.38;100.00;99503.56;5047620;28;9735;-68
2023/10/22 02:12:30;;;;;;;;;3.00;3.00;;;;;12.39;100.00;99507.09;5062609;28;10412;-67
2023/10/22 02:14:56;;;;;;;;;2.00;2.00;;;;;12.45;100.00;99505.31;5047231;28;9614;-68
2023/10/22 02:17:23;;;;;;;;;3.50;2.00;;;;;12.45;100.00;99513.41;5029130;28;9623;-68
2023/10/22 02:19:50;;;;;;;;;4.00;3.25;;;;;12.46;100.00;99531.25;5029562;28;9455;-68
2023/10/22 02:22:16;;;;;;;;;2.00;2.00;;;;;12.51;100.00;99534.84;5047481;28;9688;-68
2023/10/22 02:24:43;;;;;;;;;2.00;2.00;;;;;12.55;100.00;99537.91;5047463;28;9631;-68
2023/10/22 02:27:09;;;;;;;;;4.75;3.00;;;;;12.51;100.00;99542.13;5047167;28;9517;-69
2023/10/22 02:29:36;;;;;;;;;3.00;3.00;;;;;12.54;100.00;99541.66;5049425;28;9470;-68
2023/10/22 02:32:06;;;;;;;;;4.75;4.75;;;;;12.54;100.00;99550.59;5050953;28;9450;-68
2023/10/22 02:34:35;;;;;;;;;2.50;2.25;;;;;12.57;100.00;99554.69;5049629;28;9490;-68
2023/10/22 02:37:02;;;;;;;;;3.25;3.25;;;;;12.58;100.00;99556.34;5049220;28;9481;-68
2023/10/22 02:39:29;;;;;;;;;4.50;3.00;;;;;12.58;100.00;99556.34;5050714;28;9454;-68
2023/10/22 02:41:55;;;;;;;;;3.67;3.00;;;;;12.60;100.00;99565.03;5050628;28;9612;-68
2023/10/22 02:44:22;;;;;;;;;8.25;6.00;;;;;12.59;100.00;99577.69;5050770;28;9381;-69
2023/10/22 02:46:49;;;;;;;;;3.00;3.00;;;;;12.60;100.00;99576.63;5048905;28;9610;-67
2023/10/22 02:49:15;;;;;;;;;3.00;3.00;;;;;12.61;100.00;99574.75;5049292;28;9475;-68
2023/10/22 02:51:42;;;;;;;;;1.00;1.00;;;;;12.60;100.00;99583.91;5049298;28;9466;-68
2023/10/22 02:54:08;;;;;;;;;3.00;3.00;;;;;12.60;100.00;99592.03;5050688;28;9385;-68
2023/10/22 02:56:35;;;;;;;;;2.50;2.50;;;;;12.64;100.00;99595.88;5050302;28;9729;-67
2023/10/22 02:59:02;;;;;;;;;2.00;2.00;;;;;12.61;100.00;99601.75;5050737;28;10197;-68
2023/10/22 03:01:30;;;;;;;;;1.67;1.00;;;;;12.68;100.00;99634.00;5065855;28;9439;-68
2023/10/22 03:03:57;;;;;;;;;0.00;0.00;;;;;12.70;100.00;99645.41;5049040;28;9331;-67
2023/10/22 03:06:24;;;;;;;;;0.00;0.00;;;;;12.71;100.00;99645.16;5050214;28;9348;-68
2023/10/22 03:08:50;;;;;;;;;0.00;0.00;;;;;12.70;100.00;99651.63;5049149;28;9294;-68
2023/10/22 03:11:18;;;;;;;;;0.00;0.00;;;;;12.73;100.00;99670.06;5050378;28;9245;-68
2023/10/22 03:13:46;;;;;;;;;2.00;0.00;;;;;12.69;100.00;99681.56;5049011;28;9250;-68
2023/10/22 03:16:14;;;;;;;;;0.00;0.00;;;;;12.68;100.00;99688.84;5065171;28;10052;-68
2023/10/22 03:18:44;;;;;;;;;1.67;0.67;;;;;12.65;100.00;99700.13;5032301;28;9362;-68
2023/10/22 03:21:28;;;;;;;;;0.00;0.00;;;;;12.61;100.00;99709.75;5050305;28;9440;-68
2023/10/22 03:23:54;;;;;;;;;0.00;0.00;;;;;12.59;100.00;99709.97;5065631;28;9985;-69
2023/10/22 03:26:21;;;;;;;;;1.00;0.00;;;;;12.56;100.00;99723.13;5049816;28;9435;-68
2023/10/22 03:28:50;;;;;;;;;0.00;0.00;;;;;12.58;100.00;99734.50;5050290;28;9295;-67
2023/10/22 03:31:18;;;;;;;;;1.00;1.00;;;;;12.56;100.00;99737.44;5050081;28;9360;-68
2023/10/22 03:33:45;;;;;;;;;0.00;0.00;;;;;12.60;100.00;99762.09;5050154;28;10046;-68
2023/10/22 03:36:14;;;;;;;;;0.00;0.00;;;;;12.56;100.00;99764.44;5048380;28;9394;-69
2023/10/22 03:38:41;;;;;;;;;2.00;2.00;;;;;12.49;100.00;99779.91;5049009;28;9133;-68
2023/10/22 03:41:07;;;;;;;;;3.00;2.33;;;;;12.43;100.00;99788.09;5049602;28;9240;-68
2023/10/22 03:43:36;;;;;;;;;1.33;1.33;;;;;12.38;100.00;99811.22;5049735;28;9463;-68
2023/10/22 03:46:03;;;;;;;;;3.00;3.00;;;;;12.31;100.00;99813.19;5049614;28;9440;-68
2023/10/22 03:48:30;;;;;;;;;5.75;2.50;;;;;12.26;100.00;99829.25;5048122;28;9650;-68
2023/10/22 03:50:58;;;;;;;;;2.00;1.50;;;;;12.27;100.00;99835.47;5048106;28;9605;-67
2023/10/22 03:53:25;;;;;;;;;3.50;3.50;;;;;12.22;100.00;99846.97;5049761;28;9519;-68
2023/10/22 03:55:51;;;;;;;;;4.25;4.25;;;;;12.23;100.00;99847.78;5049479;28;9597;-68
2023/10/22 03:58:18;;;;;;;;;4.00;3.25;;;;;12.22;100.00;99854.22;5049372;28;9625;-68
2023/10/22 04:00:45;;;;;;;;;2.00;2.00;;;;;12.05;100.00;99849.47;5049656;28;9528;-67
2023/10/22 04:03:11;;;;;;;;;2.00;2.00;;;;;11.98;100.00;99875.72;5049382;28;9514;-67
2023/10/22 04:05:40;;;;;;;;;3.00;3.00;;;;;11.91;100.00;99875.00;5054692;22;9589;31
2023/10/22 04:08:07;;;;;;;;;3.00;3.00;;;;;11.95;100.00;99889.66;4970483;28;9502;-67
2023/10/22 04:10:35;;;;;;;;;4.25;3.00;;;;;11.90;100.00;99899.47;4972040;28;9675;-67
2023/10/22 04:13:02;;;;;;;;;1.50;1.50;;;;;11.90;100.00;99910.25;4954848;28;9718;-67
2023/10/22 04:15:35;;;;;;;;;1.75;1.75;;;;;11.88;100.00;99914.00;4972410;28;9437;-68
2023/10/22 04:18:02;;;;;;;;;4.00;2.00;;;;;11.80;100.00;99921.56;4972423;28;9514;-68
2023/10/22 04:20:33;;;;;;;;;2.25;2.25;;;;;11.83;100.00;99930.03;4972188;28;9623;-67
2023/10/22 04:23:00;;;;;;;;;3.00;2.00;;;;;11.84;100.00;99930.88;4971843;28;9613;-67
2023/10/22 04:25:28;;;;;;;;;2.25;2.25;;;;;11.88;100.00;99929.38;4954548;28;9539;-68
2023/10/22 04:27:54;;;;;;;;;1.50;1.50;;;;;11.94;100.00;99933.03;4971620;28;9553;-68
2023/10/22 04:30:21;;;;;;;;;2.50;1.75;;;;;11.93;100.00;99931.38;4971555;28;9533;-67
2023/10/22 04:32:47;;;;;;;;;1.50;1.50;;;;;11.97;100.00;99937.97;4971620;28;9523;-67
2023/10/22 04:35:14;;;;;;;;;3.00;3.00;;;;;11.96;100.00;99941.72;4970125;28;9547;-67
2023/10/22 04:37:40;;;;;;;;;3.25;2.50;;;;;11.96;100.00;99947.94;4971360;28;9540;-67
2023/10/22 04:40:07;;;;;;;;;1.75;1.75;;;;;11.97;100.00;99946.88;4971367;28;9472;-67
2023/10/22 04:42:34;;;;;;;;;2.00;2.00;;;;;11.96;100.00;99947.13;4971489;28;9664;-67
2023/10/22 04:45:00;;;;;;;;;1.00;0.25;;;;;11.95;100.00;99957.09;4971308;28;9619;-67
2023/10/22 04:47:27;;;;;;;;;1.00;1.00;;;;;11.96;100.00;99966.81;4971017;28;9372;-67
2023/10/22 04:49:53;;;;;;;;;1.25;1.25;;;;;11.99;100.00;99961.00;4971101;28;9303;-67
2023/10/22 04:52:33;;;;;;;;;1.25;1.25;;;;;12.01;100.00;99966.97;4971328;28;9527;-67
2023/10/22 04:55:01;;;;;;;;;1.00;1.00;;;;;12.04;100.00;99977.31;4971266;28;9609;-67
2023/10/22 04:57:28;;;;;;;;;2.00;1.00;;;;;12.07;100.00;99978.72;4970692;28;9533;-67
2023/10/22 04:59:55;;;;;;;;;2.00;1.00;;;;;12.04;100.00;99981.88;4971216;28;9435;-67
2023/10/22 05:02:21;;;;;;;;;2.25;1.75;;;;;12.03;100.00;99985.59;4953845;28;10165;-68
2023/10/22 05:04:52;;;;;;;;;1.25;1.25;;;;;12.03;100.00;99997.25;4971090;28;9605;-67
2023/10/22 05:07:19;;;;;;;;;1.00;1.00;;;;;12.07;99.81;100003.00;4970611;28;9454;-67
2023/10/22 05:09:45;;;;;;;;;1.50;1.25;;;;;12.08;99.69;100005.50;4970919;28;9546;-67
2023/10/22 05:12:12;;;;;;;;;1.00;1.00;;;;;12.09;99.56;100011.69;4970920;28;9566;-68
2023/10/22 05:14:38;;;;;;;;;1.00;1.00;;;;;12.09;99.13;100017.09;4970900;28;9459;-67
2023/10/22 05:17:06;;;;;;;;;0.00;0.00;;;;;12.11;99.14;100017.69;4952997;28;9634;-67
2023/10/22 05:19:34;;;;;;;;;1.00;1.00;;;;;12.10;99.12;100024.13;4970675;28;9450;-66
2023/10/22 05:22:00;;;;;;;;;1.00;1.00;;;;;12.11;99.26;100023.09;4970692;28;9480;-67
2023/10/22 05:24:27;;;;;;;;;1.00;1.00;;;;;12.10;98.94;100027.66;4953362;28;9469;-67
2023/10/22 05:26:54;;;;;;;;;1.00;1.00;;;;;12.07;99.10;100040.75;4970514;28;9494;-67
2023/10/22 05:29:20;;;;;;;;;1.25;1.25;;;;;12.08;99.15;100045.94;4970691;28;9538;-67
2023/10/22 05:31:47;;;;;;;;;2.50;2.50;;;;;12.09;99.27;100053.00;4969274;28;9789;-68
2023/10/22 05:34:13;;;;;;;;;0.67;0.67;;;;;12.11;99.13;100053.59;4970609;28;9659;-67
2023/10/22 05:36:40;;;;;;;;;1.25;1.00;;;;;12.11;98.94;100061.69;4970262;28;9315;-68
2023/10/22 05:39:06;;;;;;;;;1.00;1.00;;;;;12.13;98.85;100056.88;4970181;28;9680;-68
2023/10/22 05:41:33;;;;;;;;;1.00;1.00;;;;;12.16;98.90;100071.00;4970524;28;9652;-67
2023/10/22 05:44:02;;;;;;;;;1.75;1.00;;;;;12.15;98.70;100070.16;4970650;28;9732;-67
2023/10/22 05:46:31;;;;;;;;;1.00;1.00;;;;;12.15;98.74;100086.34;4970070;28;9486;-67
2023/10/22 05:48:58;;;;;;;;;0.00;0.00;;;;;12.14;98.81;100079.28;4969143;28;9539;-67
2023/10/22 05:51:25;;;;;;;;;0.50;0.50;;;;;12.15;98.97;100089.03;4970346;28;10103;-67
2023/10/22 05:53:52;;;;;;;;;0.00;0.00;;;;;12.17;98.84;100097.75;4970411;28;9522;-67
2023/10/22 05:56:20;;;;;;;;;0.50;0.50;;;;;12.17;98.82;100105.84;4969930;28;9471;-67
2023/10/22 05:58:47;;;;;;;;;1.25;1.25;;;;;12.18;98.69;100103.97;4970343;28;9470;-68
2023/10/22 06:01:14;;;;;;;;;0.67;0.67;;;;;12.18;98.89;100106.66;4970449;28;9678;-68
2023/10/22 06:03:41;;;;;;;;;0.00;0.00;;;;;12.17;98.53;100107.72;4973453;28;9403;-67
2023/10/22 06:06:12;;;;;;;;;1.00;0.00;;;;;12.17;98.53;100116.63;4973912;28;9416;-67
2023/10/22 06:08:38;;;;;;;;;0.67;0.67;;;;;12.17;98.55;100132.81;4974393;28;9582;-67
2023/10/22 06:11:05;;;;;;;;;0.00;0.00;;;;;12.16;98.34;100143.84;4974238;28;9408;-67
2023/10/22 06:13:32;;;;;;;;;1.00;1.00;;;;;12.15;98.32;100147.56;4956682;28;9541;-67
2023/10/22 06:15:58;;;;;;;;;0.75;0.75;;;;;12.15;98.42;100150.25;4973903;28;10232;-67
2023/10/22 06:18:25;;;;;;;;;0.00;0.00;;;;;12.13;98.33;100156.72;4973713;28;9444;-67
2023/10/22 06:20:51;;;;;;;;;0.00;0.00;;;;;12.11;98.30;100156.13;4974054;28;9499;-67
2023/10/22 06:23:20;;;;;;;;;2.00;0.67;;;;;12.09;98.29;100165.47;4973867;28;9461;-67
2023/10/22 06:25:46;;;;;;;;;2.00;0.00;;;;;12.06;98.04;100168.59;4973820;28;9318;-67
2023/10/22 06:28:13;;;;;;;;;0.00;0.00;;;;;12.08;98.32;100180.84;4973617;28;9535;-67
2023/10/22 06:30:40;;;;;;;;;2.00;0.00;;;;;12.08;98.40;100186.22;4973806;28;9507;-67
2023/10/22 06:33:07;;;;;;;;;1.00;0.25;;;;;12.09;98.39;100185.19;4973615;28;9543;-67
2023/10/22 06:35:33;;;;;;;;;0.00;0.00;;;;;12.06;98.07;100191.00;4973418;28;10245;-67
2023/10/22 06:38:00;;;;;;;;;0.00;0.00;;;;;12.07;97.80;100198.06;4973348;28;9457;-67
2023/10/22 06:40:26;;;;;;;;;0.00;0.00;;;;;12.06;97.92;100204.50;4973363;28;9435;-67
2023/10/22 06:42:53;;;;;;;;;1.00;0.00;;;;;12.07;97.96;100208.88;4973491;28;9529;-67
2023/10/22 06:45:19;;;;;;;;;0.00;0.00;;;;;12.06;97.72;100211.75;4973481;28;9461;-67
2023/10/22 06:47:46;;;;;;;;;1.00;1.00;;;;;12.03;97.61;100231.06;4972842;28;10292;-67
2023/10/22 06:50:13;;;;;;;;;0.75;0.75;;;;;12.02;97.21;100229.44;4973389;28;10179;-67
2023/10/22 06:52:43;;;;;;;;;0.25;0.25;;;;;12.00;97.46;100240.44;4973467;28;9635;-67
2023/10/22 06:55:10;;;;;;;;;0.00;0.00;;;;;11.95;97.18;100240.28;4973286;28;9526;-67
2023/10/22 06:57:36;;;;;;;;;1.00;1.00;;;;;11.89;97.07;100241.16;4972805;28;9456;-67
2023/10/22 07:00:03;;;;;;;;;0.00;0.00;;;;;11.91;97.10;100254.41;4973350;28;9609;-67
2023/10/22 07:02:33;;;;;;;;;1.00;1.00;;;;;11.92;96.64;100253.38;4971711;28;9539;-67
2023/10/22 07:04:59;;;;;;;;;1.00;1.00;;;;;11.94;96.89;100262.88;4973247;28;9643;-67
2023/10/22 07:07:26;;;;;;;;;1.00;1.00;;;;;11.92;96.62;100261.47;4972639;28;9537;-67
2023/10/22 07:09:52;;;;;;;;;0.75;0.75;;;;;11.91;96.79;100270.59;4973081;28;9610;-67
2023/10/22 07:12:20;;;;;;;;;1.00;1.00;;;;;11.95;96.54;100271.81;4972864;28;10214;-67
2023/10/22 07:14:46;;;;;;;;;1.00;1.00;;;;;11.93;96.50;100274.72;4972499;28;9508;-67
2023/10/22 07:17:13;;;;;;;;;2.00;2.00;;;;;11.91;96.56;100274.13;4972387;28;10272;-67
2023/10/22 07:19:39;;;;;;;;;3.25;3.25;;;;;11.87;96.44;100275.63;4955254;28;9557;-68
2023/10/22 07:22:06;;;;;;;;;1.00;1.00;;;;;11.90;96.54;100287.81;4972581;28;9734;-67
2023/10/22 07:24:33;;;;;;;;;2.50;2.00;;;;;11.87;96.66;100292.63;4972609;28;9430;-67
2023/10/22 07:27:00;;;;;;;;;1.00;1.00;;;;;11.88;96.54;100290.75;4972269;28;9561;-67
2023/10/22 07:29:27;;;;;;;;;1.75;1.75;;;;;11.91;96.75;100295.72;4972459;28;10232;-67
2023/10/22 07:31:53;;;;;;;;;2.75;2.75;;;;;11.94;96.68;100311.44;4972618;28;9678;-67
2023/10/22 07:34:20;;;;;;;;;1.50;1.50;;;;;11.95;96.84;100314.97;4972598;28;9614;-67
2023/10/22 07:36:46;;;;;;;;;2.75;2.75;;;;;11.97;96.77;100316.41;4972264;28;9595;-67
2023/10/22 07:39:12;;;;;;;;;3.00;2.25;;;;;11.98;96.68;100314.53;4972459;28;9763;-67
2023/10/22 07:41:39;;;;;;;;;4.00;3.00;;;;;11.98;96.59;100312.66;4972327;28;9495;-67
2023/10/22 07:44:06;;;;;;;;;2.00;2.00;;;;;11.97;96.44;100312.88;4972242;28;9652;-68
2023/10/22 07:46:32;;;;;;;;;4.00;4.00;;;;;11.90;96.58;100325.56;4970655;28;9620;-67
2023/10/22 07:48:59;;;;;;;;;2.00;2.00;;;;;11.84;96.79;100327.28;4972243;28;9690;-68
2023/10/22 07:51:27;;;;;;;;;2.25;2.25;;;;;11.91;96.58;100328.06;4972441;28;9703;-67
2023/10/22 07:53:53;;;;;;;;;2.00;2.00;;;;;11.95;96.74;100328.44;4955281;28;9728;-67
2023/10/22 07:56:20;;;;;;;;;3.75;2.00;;;;;11.98;96.59;100336.94;4972387;28;9775;-68
2023/10/22 07:58:47;;;;;;;;;1.50;1.25;;;;;12.01;96.81;100343.78;4972545;28;9525;-68
2023/10/22 08:01:13;;;;;;;;;3.00;3.00;;;;;12.03;96.58;100344.38;4972069;28;9885;-68
2023/10/22 08:03:40;;;;;;;;;3.25;3.25;;;;;12.01;96.44;100352.69;4972145;28;9867;-67
2023/10/22 08:06:06;;;;;;;;;2.00;2.00;;;;;12.03;96.63;100361.41;4971413;28;9991;-67
2023/10/22 08:08:33;;;;;;;;;2.00;2.00;;;;;12.02;96.76;100362.44;4971898;28;9672;-67
2023/10/22 08:11:02;;;;;;;;;3.25;3.25;;;;;12.02;96.79;100365.13;4971794;28;9601;-67
2023/10/22 08:13:29;;;;;;;;;4.00;4.00;;;;;12.01;96.88;100365.38;4971684;28;9756;-67
2023/10/22 08:15:56;;;;;;;;;3.00;3.00;;;;;12.01;97.04;100374.28;4954335;28;9771;-68
2023/10/22 08:18:24;;;;;;;;;5.25;4.00;;;;;12.05;97.04;100372.81;4971682;28;10016;-68
2023/10/22 08:20:51;;;;;;;;;2.00;2.00;;;;;12.12;96.78;100380.88;4971691;28;9879;-67
2023/10/22 08:23:18;;;;;;;;;2.25;2.00;;;;;12.11;96.65;100376.50;4971552;28;9621;-67
2023/10/22 08:25:51;;;;;;;;;3.75;3.00;;;;;12.09;96.52;100378.59;4970621;28;9692;-68
2023/10/22 08:28:18;;;;;;;;;3.50;3.50;;;;;12.07;96.87;100377.97;4971269;28;9633;-67
2023/10/22 08:30:45;;;;;;;;;2.75;2.75;;;;;12.02;97.06;100385.88;4971430;28;9867;-67
2023/10/22 08:33:13;;;;;;;;;3.50;3.50;;;;;12.09;97.05;100394.78;4971477;28;9797;-67
2023/10/22 08:35:40;;;;;;;;;3.00;3.00;;;;;12.20;97.36;100385.19;4971206;28;9692;-67
2023/10/22 08:38:07;;;;;;;;;5.75;4.00;;;;;12.23;97.31;100387.44;4970993;28;9689;-67
2023/10/22 08:40:37;;;;;;;;;6.25;4.00;;;;;12.23;97.21;100401.75;4971139;28;9883;-67
2023/10/22 08:43:06;;;;;;;;;4.00;4.00;;;;;12.19;97.17;100397.84;4970079;28;9916;-67
2023/10/22 08:45:33;;;;;;;;;2.00;2.00;;;;;12.25;96.88;100401.56;4971169;28;9767;-67
2023/10/22 08:48:04;;;;;;;;;4.00;4.00;;;;;12.18;96.86;100406.97;4970984;28;10489;-67
2023/10/22 08:50:32;;;;;;;;;2.00;2.00;;;;;12.20;96.84;100412.19;4971082;28;10602;-67
2023/10/22 08:52:59;;;;;;;;;4.00;3.50;;;;;12.11;96.89;100416.97;4970962;28;9677;-67
2023/10/22 08:55:29;;;;;;;;;4.00;4.00;;;;;12.13;96.57;100417.59;4971153;28;9683;-67
2023/10/22 08:57:57;;;;;;;;;2.75;2.75;;;;;12.14;96.66;100419.25;4970654;28;9542;-67
2023/10/22 09:00:26;;;;;;;;;3.25;3.25;;;;;12.10;96.58;100416.16;4970938;28;9589;-67
2023/10/22 09:02:57;;;;;;;;;2.75;2.00;;;;;12.12;96.78;100427.56;4971264;28;9512;-67
2023/10/22 09:05:24;;;;;;;;;3.00;2.25;;;;;12.18;96.62;100428.56;4970718;28;10312;-67
2023/10/22 09:07:54;;;;;;;;;2.00;2.00;;;;;12.20;96.53;100436.47;4965926;28;9607;-67
2023/10/22 09:10:29;;;;;;;;;3.75;3.75;;;;;12.19;96.60;100442.88;4951673;28;9604;-67
2023/10/22 09:13:22;;;;;;;;;4.00;2.00;;;;;12.18;96.44;100438.53;4951509;28;9617;-67
2023/10/22 09:15:51;;;;;;;;;7.00;6.50;;;;;12.08;96.65;100445.22;4951322;28;9635;-68
2023/10/22 09:18:18;;;;;;;;;4.00;4.00;;;;;12.03;97.09;100458.53;4951190;28;9548;-68
2023/10/22 09:20:46;;;;;;;;;3.00;2.75;;;;;12.09;97.14;100454.97;4951200;28;10500;-66
2023/10/22 09:23:22;;;;;;;;;2.00;2.00;;;;;12.14;97.00;100465.13;4951407;28;9620;-68
2023/10/22 09:25:56;;;;;;;;;2.25;2.25;;;;;12.16;96.98;100457.66;4951279;28;9463;-68
2023/10/22 09:28:27;;;;;;;;;2.50;2.50;;;;;12.17;96.98;100463.88;4951004;28;9543;-68
2023/10/22 09:31:02;;;;;;;;;4.25;4.25;;;;;12.13;97.32;100466.16;4951432;28;9632;-68
2023/10/22 09:33:32;;;;;;;;;2.25;2.25;;;;;12.12;97.38;100478.84;4951583;28;9610;-68
2023/10/22 09:36:04;;;;;;;;;3.00;2.00;;;;;12.13;97.33;100474.25;4951046;28;9544;-66
2023/10/22 09:38:47;;;;;;;;;3.50;3.50;;;;;12.16;97.44;100473.00;4951031;28;9694;-68
2023/10/22 09:41:22;;;;;;;;;6.00;6.00;;;;;12.06;97.19;100487.75;4951270;28;9716;-68
2023/10/22 09:43:54;;;;;;;;;6.00;3.75;;;;;12.09;97.51;100484.66;4951329;29;9837;-68
2023/10/22 09:46:22;;;;;;;;;3.00;3.00;;;;;12.16;97.42;100498.13;4950834;28;9630;-68
2023/10/22 09:48:50;;;;;;;;;3.00;3.00;;;;;12.20;97.51;100496.66;4950987;28;9661;-68
2023/10/22 09:51:17;;;;;;;;;4.00;3.00;;;;;12.18;97.47;100492.50;4950976;28;9792;-68
2023/10/22 09:53:54;;;;;;;;;3.50;2.50;;;;;12.26;97.32;100498.47;4951164;28;9590;-67
2023/10/22 09:56:22;;;;;;;;;4.00;4.00;;;;;12.27;97.36;100497.44;4950775;28;9614;-69
2023/10/22 09:58:57;;;;;;;;;2.75;2.75;;;;;12.29;97.16;100491.84;4950991;28;9650;-66
2023/10/22 10:01:26;;;;;;;;;2.75;2.75;;;;;12.30;97.00;100488.09;4950940;28;9664;-66
2023/10/22 10:03:56;;;;;;;;;2.00;2.00;;;;;12.34;96.97;100489.31;4950782;29;9631;-66
2023/10/22 10:06:25;;;;;;;;;3.75;2.00;;;;;12.31;96.89;100503.25;4956927;28;9607;-66
2023/10/22 10:08:53;;;;;;;;;3.00;3.00;;;;;12.35;96.79;100497.19;4970260;28;9541;-66
2023/10/22 10:11:21;;;;;;;;;1.67;1.67;;;;;12.38;97.01;100504.88;4970586;28;9579;-66
2023/10/22 10:13:48;;;;;;;;;2.50;2.00;;;;;12.40;96.75;100506.53;4970025;28;9476;-67
2023/10/22 10:16:14;;;;;;;;;2.00;1.50;;;;;12.40;96.74;100510.06;4969687;28;9573;-66
2023/10/22 10:19:02;;;;;;;;;3.25;2.75;;;;;12.36;96.26;100525.03;4969895;28;9463;-67
2023/10/22 10:21:38;;;;;;;;;2.00;2.00;;;;;12.35;96.20;100521.47;4970185;28;9628;-67
2023/10/22 10:24:19;;;;;;;;;3.00;2.75;;;;;12.31;96.24;100517.56;4970041;28;9522;-67
2023/10/22 10:26:48;;;;;;;;;8.25;3.00;;;;;12.33;96.57;100537.09;4968405;28;9366;-68
2023/10/22 10:29:15;;;;;;;;;3.00;3.00;;;;;12.36;96.54;100542.06;4970095;28;9531;-67
2023/10/22 10:31:47;;;;;;;;;3.00;2.50;;;;;12.38;96.14;100545.34;4952723;28;9674;-67
2023/10/22 10:34:24;;;;;;;;;2.25;2.25;;;;;12.36;96.25;100543.94;4970000;28;9535;-67
2023/10/22 10:36:52;;;;;;;;;2.75;2.75;;;;;12.34;96.17;100556.81;4968136;28;9613;-69
2023/10/22 10:39:38;;;;;;;;;3.00;2.50;;;;;12.34;95.93;100552.22;4969848;28;9547;-67
2023/10/22 10:42:05;;;;;;;;;2.50;2.50;;;;;12.33;95.90;100563.25;4970052;28;9550;-68
2023/10/22 10:44:32;;;;;;;;;3.33;2.00;;;;;12.32;96.20;100565.13;4969673;28;9660;-68
2023/10/22 10:47:20;;;;;;;;;2.67;2.67;;;;;12.35;96.15;100567.38;4969313;28;9385;-68
2023/10/22 10:50:12;;;;;;;;;1.50;1.50;;;;;12.38;95.72;100561.56;4972636;28;9374;-68
2023/10/22 10:52:48;;;;;;;;;1.75;1.75;;;;;12.42;96.07;100561.97;4972079;28;9521;-68
2023/10/22 10:55:14;;;;;;;;;1.75;1.75;;;;;12.41;95.80;100560.31;4956036;28;9454;-68
2023/10/22 10:57:42;;;;;;;;;1.75;1.75;;;;;12.44;96.11;100559.06;4972918;28;9463;-68
2023/10/22 11:00:10;;;;;;;;;2.00;2.00;;;;;12.45;96.05;100563.41;4956026;28;10229;-68
2023/10/22 11:02:41;;;;;;;;;2.00;1.75;;;;;12.50;96.03;100569.81;4973148;28;9522;-68
2023/10/22 11:05:11;;;;;;;;;1.50;1.50;;;;;12.55;95.99;100564.59;4973113;28;10234;-68
2023/10/22 11:07:39;;;;;;;;;0.50;0.50;;;;;12.60;95.68;100562.13;4972771;28;9539;-68
2023/10/22 11:10:16;;;;;;;;;0.50;0.50;;;;;12.65;95.66;100558.75;4973302;28;9482;-69
2023/10/22 11:12:43;;;;;;;;;2.00;1.00;;;;;12.66;95.57;100563.13;4973100;28;9461;-68
2023/10/22 11:15:12;;;;;;;;;1.00;1.00;;;;;12.68;95.27;100565.59;4973060;28;9539;-68
2023/10/22 11:17:41;;;;;;;;;2.00;1.00;;;;;12.68;95.27;100571.00;4972667;28;10284;-68
2023/10/22 11:20:08;;;;;;;;;1.75;1.75;;;;;12.64;95.40;100562.50;4973039;28;9458;-68
2023/10/22 11:22:36;;;;;;;;;3.75;3.00;;;;;12.64;95.48;100567.91;4973424;28;9594;-67
2023/10/22 11:25:08;;;;;;;;;2.00;2.00;;;;;12.59;95.25;100570.41;4972584;28;9441;-67
2023/10/22 11:27:37;;;;;;;;;2.25;2.25;;;;;12.58;95.20;100566.88;4972191;28;9547;-67
2023/10/22 11:30:04;;;;;;;;;1.00;1.00;;;;;12.66;95.04;100567.69;4972969;28;9478;-67
2023/10/22 11:32:30;;;;;;;;;2.75;1.00;;;;;12.73;94.76;100566.63;4972833;28;9464;-68
2023/10/22 11:34:59;;;;;;;;;2.25;2.00;;;;;12.79;94.36;100567.63;4972597;28;9423;-67
2023/10/22 11:37:37;;;;;;;;;2.00;1.00;;;;;12.85;94.42;100573.00;4972280;28;10192;-68